首页
METAR-TAF:

METAR-TAF

机场 :

Marshall County Airport

Lacon, 伊利诺伊州, 美国

纬度: 41-01-09N, 经度: 089-23-11W, 海拔: 173米

当前天气观测

该预报发布于29分钟前的21:35 UTC
风速9节,风向西,有时为16节阵风
温度 20°C
湿度 49%
气压 1007 hPa
能見度: 16.1公里
散云层高于4800英尺

METAR: KC75 152135Z AUTO 28009G16KT 10SM SCT048 20/09 A2975 RMK AO2 T01950092

时间: 17:04 (22:04 UTC)


TAF: 丢失

超过4000个机场的气象观测和天气预报(METAR&TAF报告)。

可查询的气象台以黄色和红色小点在地图上表示。

将鼠标移到小点上方,可查看气象台名称。

然后点击查看天气观测和预报。

如需切换地图:点击带黑十字的绿色按钮放大地图;点击带横线的绿色按钮缩小地图;或者点击绿色箭头查看邻近地区的地图。


METAR-TAF: